Flight Track Log - Related Links

Times and Time Zones

All times are in EDT time to prevent confusion due to time zone crossing. See the AAY860 flight status page for this flight to view local times or setup timezone preferences in your user account.

Time Position Orientation Groundspeed Altitude Reporting Facility
EDT Latitude Longitude Course Direction KTS MPH feet Rate Location/Type
Wed 06:29:51 AM 27.9503 -82.6881 27° Northeast 182 209 36,000  Level Miami Center
Wed 06:30:52 AM 27.9958 -82.6617 27° Northeast 207 238 3,100 -15,124 Descending Miami Center
Wed 06:31:52 AM 28.0689 -82.6708 354° North 265 305 5,500 2,826 Climbing Miami Center
Wed 06:32:53 AM 28.1433 -82.6892 348° North 275 316 8,800 2,607 Climbing Miami Center
Wed 06:33:54 AM 28.2214 -82.7050 350° North 277 319 10,800 1,785 Climbing Miami Center
Wed 06:34:54 AM 28.3136 -82.7292 347° North 332 382 12,400 1,983 Climbing Miami Center
Wed 06:35:55 AM 28.4128 -82.7500 350° North 355 409 14,800 2,361 Climbing Miami Center
Wed 06:36:56 AM 28.5122 -82.7731 348° North 362 417 17,200 2,033 Climbing Miami Center
Wed 06:37:56 AM 28.6228 -82.8136 342° North 380 437 18,900 1,736 Climbing Miami Center
Wed 06:38:57 AM 28.7278 -82.8547 341° North 391 450 20,700 1,721 Climbing Miami Center
Wed 06:39:58 AM 28.8353 -82.8944 342° North 404 465 22,400 1,537 Climbing Miami Center
Wed 06:40:58 AM 28.9464 -82.9369 341° North 418 481 23,800 1,388 Climbing Miami Center
Wed 06:41:59 AM 29.0600 -82.9800 342° North 426 490 25,200 1,388 Climbing Miami Center
Wed 06:42:59 AM 29.1758 -83.0267 341° North 432 497 26,600 1,388 Climbing Miami Center
Wed 06:44:00 AM 29.2928 -83.0708 342° North 437 503 28,000 1,180 Climbing Miami Center
Wed 06:45:01 AM 29.4103 -83.1172 341° North 443 510 29,000 992 Climbing Miami Center
Wed 06:46:01 AM 29.5319 -83.1644 341° North 454 522 30,000 1,190 Climbing Miami Center
Wed 06:47:02 AM 29.6542 -83.2125 341° North 454 522 31,400 1,289 Climbing Miami Center
Wed 06:48:02 AM 29.7764 -83.2608 341° North 454 522 32,600 1,091 Climbing Miami Center
Wed 06:49:03 AM 29.8978 -83.3078 341° North 454 522 33,600 1,180 Climbing Miami Center
Wed 06:50:04 AM 30.0189 -83.3550 341° North 455 524 35,000 1,091 Climbing Miami Center
Wed 06:51:04 AM 30.1389 -83.4022 341° North 455 524 35,800 496 Climbing Miami Center
Wed 06:52:05 AM 30.2578 -83.4500 341° North 454 522 36,000 96 Climbing Miami Center
Wed 06:53:09 AM 30.4050 -83.5067 342° North 445 512 36,000  Level Jacksonville Center
Wed 06:54:09 AM 30.5236 -83.5581 340° North 445 512 36,000  Level Jacksonville Center
Wed 06:55:09 AM 30.6278 -83.5975 342° North 440 506 36,000  Level Jacksonville Center
Wed 06:56:09 AM 30.7486 -83.6444 342° North 445 512 36,000  Level Jacksonville Center
Wed 06:57:09 AM 30.8675 -83.6936 340° North 445 512 36,000  Level Jacksonville Center
Wed 06:58:09 AM 30.9861 -83.7431 340° North 445 512 36,000  Level Jacksonville Center
Wed 06:59:09 AM 31.1069 -83.7903 342° North 445 512 36,000  Level Jacksonville Center
Wed 07:00:09 AM 31.2358 -83.8425 341° North 445 512 36,000  Level Jacksonville Center
Wed 07:01:09 AM 31.3547 -83.8925 340° North 445 512 36,000  Level Jacksonville Center
Wed 07:02:09 AM 31.4731 -83.9425 340° North 445 512 36,000  Level Jacksonville Center
Wed 07:03:03 AM 31.5714 -83.9731 345° North 443 510 36,000  Level Atlanta Center
Wed 07:04:03 AM 31.6964 -84.0022 349° North 443 510 36,000  Level Atlanta Center
Wed 07:05:03 AM 31.8258 -84.0292 350° North 455 524 36,000  Level Atlanta Center
Wed 07:06:03 AM 31.9492 -84.0558 350° North 455 524 36,000  Level Atlanta Center
Wed 07:07:03 AM 32.0847 -84.0856 349° North 455 524 36,000  Level Atlanta Center
Wed 07:08:03 AM 32.2100 -84.1125 350° North 450 518 36,000  Level Atlanta Center
Wed 07:09:03 AM 32.3372 -84.1422 349° North 450 518 36,000  Level Atlanta Center
Wed 07:10:03 AM 32.4603 -84.1692 350° North 450 518 36,000  Level Atlanta Center
Wed 07:11:03 AM 32.5856 -84.1992 349° North 450 518 36,000  Level Atlanta Center
Wed 07:12:03 AM 32.7108 -84.2264 350° North 450 518 36,000  Level Atlanta Center
Wed 07:13:03 AM 32.8214 -84.2514 349° North 450 518 36,000  Level Atlanta Center
Wed 07:14:03 AM 32.9486 -84.2814 349° North 450 518 36,000  Level Atlanta Center
Wed 07:15:03 AM 33.0758 -84.3117 349° North 450 518 36,000  Level Atlanta Center
Wed 07:16:03 AM 33.1989 -84.3392 349° North 455 524 36,000  Level Atlanta Center
Wed 07:17:03 AM 33.3264 -84.3669 350° North 455 524 36,000  Level Atlanta Center
Wed 07:18:03 AM 33.4514 -84.3972 349° North 455 524 36,000  Level Atlanta Center
Wed 07:19:03 AM 33.5786 -84.4203 351° North 455 524 36,000  Level Atlanta Center
Wed 07:20:03 AM 33.7186 -84.4158 North 455 524 36,000  Level Atlanta Center
Wed 07:21:03 AM 33.8542 -84.3864 10° North 467 537 36,000  Level Atlanta Center
Wed 07:22:03 AM 33.9839 -84.3569 11° North 472 543 36,000  Level Atlanta Center
Wed 07:23:03 AM 34.1092 -84.3272 11° North 466 536 36,000  Level Atlanta Center
Wed 07:24:03 AM 34.2447 -84.2925 12° North 473 544 36,000  Level Atlanta Center
Wed 07:25:03 AM 34.3722 -84.2728 North 473 544 36,000  Level Atlanta Center
Wed 07:26:03 AM 34.4994 -84.2833 356° North 460 529 36,000  Level Atlanta Center
Wed 07:27:03 AM 34.6289 -84.2911 357° North 460 529 36,000  Level Atlanta Center
Wed 07:28:03 AM 34.7561 -84.2967 358° North 460 529 36,000  Level Atlanta Center
Wed 07:29:03 AM 34.8814 -84.3072 356° North 455 524 36,000  Level Atlanta Center
Wed 07:30:03 AM 34.9919 -84.3100 359° North 450 518 36,000  Level Atlanta Center
Wed 07:31:03 AM 35.1172 -84.3181 357° North 445 512 36,000  Level Atlanta Center
Wed 07:32:03 AM 35.2403 -84.3236 358° North 445 512 36,000  Level Atlanta Center
Wed 07:33:03 AM 35.3633 -84.3317 357° North 445 512 36,000  Level Atlanta Center
Wed 07:34:03 AM 35.4864 -84.3347 359° North 445 512 36,000 -50 Level Atlanta Center
Wed 07:35:03 AM 35.6136 -84.3428 357° North 445 512 35,900 -250 Descending Atlanta Center
Wed 07:36:03 AM 35.7408 -84.3483 358° North 445 512 35,500 -550 Descending Atlanta Center
Wed 07:37:03 AM 35.8639 -84.3539 358° North 445 512 34,800 -850 Descending Atlanta Center
Wed 07:38:03 AM 35.9869 -84.3619 357° North 440 506 33,800 -1,150 Descending Atlanta Center
Wed 07:39:03 AM 36.1100 -84.3703 357° North 440 506 32,500 -1,688 Descending Atlanta Center
Wed 07:40:11 AM 36.2542 -84.3767 358° North 440 506 30,200 -1,708 Descending Indianapolis Center
Wed 07:41:13 AM 36.3742 -84.3825 358° North 438 504 28,800 -1,122 Descending Indianapolis Center
Wed 07:42:14 AM 36.4917 -84.3903 357° North 430 495 27,900 -976 Descending Indianapolis Center
Wed 07:43:16 AM 36.6211 -84.3961 358° North 423 487 26,800 -1,024 Descending Indianapolis Center
Wed 07:44:17 AM 36.7386 -84.4042 357° North 422 486 25,800 -1,171 Descending Indianapolis Center
Wed 07:45:19 AM 36.8533 -84.4094 358° North 417 480 24,400 -2,274 Descending Indianapolis Center
Wed 07:46:21 AM 36.9683 -84.4150 358° North 416 479 21,100 -3,463 Descending Indianapolis Center
Wed 07:47:22 AM 37.0769 -84.4222 357° North 401 461 17,300 -3,220 Descending Indianapolis Center
Wed 07:48:24 AM 37.1847 -84.4272 358° North 391 450 14,500 -2,244 Descending Indianapolis Center
Wed 07:49:25 AM 37.2867 -84.4336 357° North 373 429 12,700 -1,707 Descending Indianapolis Center
Wed 07:50:27 AM 37.4003 -84.4406 357° North 356 410 11,000 -1,210 Descending Indianapolis Center
Wed 07:51:29 AM 37.4878 -84.4431 359° North 317 365 10,200 -1,073 Descending Indianapolis Center
Wed 07:52:30 AM 37.5689 -84.4467 358° North 293 337 8,800 -1,463 Descending Indianapolis Center
Wed 07:53:32 AM 37.6444 -84.4492 358° North 278 320 7,200 -1,548 Descending Indianapolis Center
Wed 07:54:34 AM 37.7208 -84.4486 360° North 277 319 5,600 -1,122 Descending Indianapolis Center
Wed 07:55:35 AM 37.7936 -84.4506 359° North 266 306 4,900 -732 Descending Indianapolis Center
Wed 07:56:37 AM 37.8636 -84.4519 359° North 257 296 4,100 -435 Descending Indianapolis Center
Wed 07:57:39 AM 37.9397 -84.4522 360° North 243 280 4,000 -49 Descending Indianapolis Center
Wed 07:58:40 AM 37.9989 -84.4400 North 232 267 4,000 49 Level Indianapolis Center
Wed 07:59:42 AM 38.0589 -84.4150 18° North 231 266 4,100 48 Climbing Indianapolis Center
Wed 08:00:44 AM 38.1169 -84.3883 20° North 230 265 4,100 -390 Level Indianapolis Center
Wed 08:01:45 AM 38.1581 -84.4142 334° Northwest 192 221 3,300 -390 Descending Indianapolis Center
Wed 08:02:47 AM 38.1489 -84.4703 258° West 180 207 3,300 -145 Level Indianapolis Center
Wed 08:03:49 AM 38.1206 -84.5128 230° Southwest 169 194 3,000 -537 Descending Indianapolis Center
Wed 08:04:50 AM 38.0853 -84.5489 219° Southwest 154 177 2,200 -585 Descending Indianapolis Center
Wed 08:05:52 AM 38.0567 -84.5831 223° Southwest 148 170 1,800 -387 Descending Indianapolis Center

Login

Don't have an account? Register now (free) for customized features, flight alerts, and more!